sensor_id;sensor_type;location;lat;lon;timestamp;pressure;altitude;pressure_sealevel;temperature;humidity
56038;BME280;41907;47.848;9.000;2023-04-02T00:08:59;95109.56;;;5.12;100.00
56038;BME280;41907;47.848;9.000;2023-04-02T00:11:30;95110.09;;;5.14;100.00
56038;BME280;41907;47.848;9.000;2023-04-02T00:13:59;95102.44;;;5.12;100.00
56038;BME280;41907;47.848;9.000;2023-04-02T00:16:25;95112.34;;;5.20;100.00
56038;BME280;41907;47.848;9.000;2023-04-02T00:18:52;95110.66;;;5.11;100.00
56038;BME280;41907;47.848;9.000;2023-04-02T00:21:20;95105.59;;;5.14;100.00
56038;BME280;41907;47.848;9.000;2023-04-02T00:23:45;95103.78;;;5.10;100.00
56038;BME280;41907;47.848;9.000;2023-04-02T00:28:55;95105.03;;;4.99;100.00
56038;BME280;41907;47.848;9.000;2023-04-02T00:31:20;95099.03;;;4.93;100.00
56038;BME280;41907;47.848;9.000;2023-04-02T00:33:46;95112.03;;;4.90;100.00
56038;BME280;41907;47.848;9.000;2023-04-02T00:36:12;95109.41;;;4.90;100.00
56038;BME280;41907;47.848;9.000;2023-04-02T00:38:37;95111.53;;;4.88;100.00
56038;BME280;41907;47.848;9.000;2023-04-02T00:41:09;95113.03;;;4.94;100.00
56038;BME280;41907;47.848;9.000;2023-04-02T00:43:38;95116.59;;;5.03;100.00
56038;BME280;41907;47.848;9.000;2023-04-02T00:46:18;95113.44;;;5.01;100.00
56038;BME280;41907;47.848;9.000;2023-04-02T00:53:39;95116.88;;;5.01;100.00
56038;BME280;41907;47.848;9.000;2023-04-02T00:56:11;95122.47;;;5.00;100.00
56038;BME280;41907;47.848;9.000;2023-04-02T00:58:37;95122.38;;;5.05;100.00
56038;BME280;41907;47.848;9.000;2023-04-02T01:01:03;95125.81;;;5.05;100.00
56038;BME280;41907;47.848;9.000;2023-04-02T01:06:01;95126.47;;;4.97;100.00
56038;BME280;41907;47.848;9.000;2023-04-02T01:08:31;95118.94;;;5.04;100.00
56038;BME280;41907;47.848;9.000;2023-04-02T01:13:35;95113.81;;;4.75;100.00
56038;BME280;41907;47.848;9.000;2023-04-02T01:19:03;95111.91;;;4.81;100.00
56038;BME280;41907;47.848;9.000;2023-04-02T01:24:06;95132.03;;;4.77;100.00
56038;BME280;41907;47.848;9.000;2023-04-02T01:26:39;95127.38;;;4.69;100.00
56038;BME280;41907;47.848;9.000;2023-04-02T01:29:15;95125.81;;;4.68;100.00
56038;BME280;41907;47.848;9.000;2023-04-02T01:31:43;95126.78;;;4.72;100.00
56038;BME280;41907;47.848;9.000;2023-04-02T01:34:10;95117.94;;;4.63;100.00
56038;BME280;41907;47.848;9.000;2023-04-02T01:36:48;95116.16;;;4.58;100.00
56038;BME280;41907;47.848;9.000;2023-04-02T01:44:21;95111.25;;;4.70;100.00
56038;BME280;41907;47.848;9.000;2023-04-02T01:46:48;95114.69;;;4.71;100.00
56038;BME280;41907;47.848;9.000;2023-04-02T01:49:15;95114.22;;;4.82;100.00
56038;BME280;41907;47.848;9.000;2023-04-02T01:51:42;95128.97;;;4.89;100.00
56038;BME280;41907;47.848;9.000;2023-04-02T01:54:09;95127.03;;;4.94;100.00
56038;BME280;41907;47.848;9.000;2023-04-02T01:56:34;95121.47;;;4.96;100.00
56038;BME280;41907;47.848;9.000;2023-04-02T01:59:00;95128.81;;;4.99;100.00
56038;BME280;41907;47.848;9.000;2023-04-02T02:01:30;95125.59;;;5.02;100.00
56038;BME280;41907;47.848;9.000;2023-04-02T02:03:57;95128.72;;;5.04;100.00
56038;BME280;41907;47.848;9.000;2023-04-02T02:06:22;95126.97;;;4.99;100.00
56038;BME280;41907;47.848;9.000;2023-04-02T02:08:49;95135.44;;;4.96;100.00
56038;BME280;41907;47.848;9.000;2023-04-02T02:11:19;95131.38;;;4.85;100.00
56038;BME280;41907;47.848;9.000;2023-04-02T02:13:55;95133.78;;;4.81;100.00
56038;BME280;41907;47.848;9.000;2023-04-02T02:16:21;95134.25;;;4.89;100.00
56038;BME280;41907;47.848;9.000;2023-04-02T02:18:50;95141.53;;;4.97;100.00
56038;BME280;41907;47.848;9.000;2023-04-02T02:21:20;95141.44;;;5.02;100.00
56038;BME280;41907;47.848;9.000;2023-04-02T02:23:48;95142.44;;;5.06;100.00
56038;BME280;41907;47.848;9.000;2023-04-02T02:26:13;95149.88;;;5.04;100.00
56038;BME280;41907;47.848;9.000;2023-04-02T02:28:39;95143.53;;;5.05;100.00
56038;BME280;41907;47.848;9.000;2023-04-02T02:31:08;95152.75;;;5.07;100.00
56038;BME280;41907;47.848;9.000;2023-04-02T02:33:40;95147.00;;;5.00;100.00
56038;BME280;41907;47.848;9.000;2023-04-02T02:39:23;95149.97;;;4.99;100.00
56038;BME280;41907;47.848;9.000;2023-04-02T02:44:34;95165.72;;;5.04;100.00
56038;BME280;41907;47.848;9.000;2023-04-02T02:47:01;95162.88;;;5.00;100.00
56038;BME280;41907;47.848;9.000;2023-04-02T02:49:29;95161.75;;;5.06;100.00
56038;BME280;41907;47.848;9.000;2023-04-02T02:54:23;95167.66;;;5.17;100.00
56038;BME280;41907;47.848;9.000;2023-04-02T02:56:53;95166.09;;;5.16;100.00
56038;BME280;41907;47.848;9.000;2023-04-02T02:59:20;95170.50;;;5.20;100.00
56038;BME280;41907;47.848;9.000;2023-04-02T03:01:46;95164.16;;;5.21;100.00
56038;BME280;41907;47.848;9.000;2023-04-02T03:04:12;95172.81;;;5.27;100.00
56038;BME280;41907;47.848;9.000;2023-04-02T03:06:37;95164.78;;;5.32;100.00
56038;BME280;41907;47.848;9.000;2023-04-02T03:09:19;95174.00;;;5.35;100.00
56038;BME280;41907;47.848;9.000;2023-04-02T03:11:51;95184.59;;;5.35;100.00
56038;BME280;41907;47.848;9.000;2023-04-02T03:14:28;95181.03;;;5.26;100.00
56038;BME280;41907;47.848;9.000;2023-04-02T03:17:07;95185.16;;;5.32;100.00
56038;BME280;41907;47.848;9.000;2023-04-02T03:22:14;95184.50;;;5.40;100.00
56038;BME280;41907;47.848;9.000;2023-04-02T03:27:34;95187.88;;;5.27;100.00
56038;BME280;41907;47.848;9.000;2023-04-02T03:32:44;95201.25;;;5.35;100.00
56038;BME280;41907;47.848;9.000;2023-04-02T03:37:45;95198.44;;;5.45;100.00
56038;BME280;41907;47.848;9.000;2023-04-02T03:40:16;95207.88;;;5.51;100.00
56038;BME280;41907;47.848;9.000;2023-04-02T03:42:59;95209.94;;;5.54;100.00
56038;BME280;41907;47.848;9.000;2023-04-02T03:45:34;95210.22;;;5.53;100.00
56038;BME280;41907;47.848;9.000;2023-04-02T03:50:33;95213.69;;;5.67;100.00
56038;BME280;41907;47.848;9.000;2023-04-02T03:53:00;95212.91;;;5.67;100.00
56038;BME280;41907;47.848;9.000;2023-04-02T03:55:30;95218.38;;;5.56;100.00
56038;BME280;41907;47.848;9.000;2023-04-02T04:01:38;95217.06;;;5.73;100.00
56038;BME280;41907;47.848;9.000;2023-04-02T04:06:17;95213.66;;;5.86;100.00
56038;BME280;41907;47.848;9.000;2023-04-02T04:11:15;95222.34;;;5.73;100.00
56038;BME280;41907;47.848;9.000;2023-04-02T04:13:58;95217.63;;;5.70;100.00
56038;BME280;41907;47.848;9.000;2023-04-02T04:16:28;95218.84;;;5.77;100.00
56038;BME280;41907;47.848;9.000;2023-04-02T04:19:00;95225.97;;;5.77;100.00
56038;BME280;41907;47.848;9.000;2023-04-02T04:21:28;95226.47;;;5.79;100.00
56038;BME280;41907;47.848;9.000;2023-04-02T04:24:05;95225.13;;;5.81;100.00
56038;BME280;41907;47.848;9.000;2023-04-02T04:26:37;95235.72;;;5.81;100.00
56038;BME280;41907;47.848;9.000;2023-04-02T04:31:49;95238.50;;;5.90;100.00
56038;BME280;41907;47.848;9.000;2023-04-02T04:34:20;95246.88;;;5.78;100.00
56038;BME280;41907;47.848;9.000;2023-04-02T04:36:50;95243.81;;;5.90;100.00
56038;BME280;41907;47.848;9.000;2023-04-02T04:39:24;95260.47;;;5.90;100.00
56038;BME280;41907;47.848;9.000;2023-04-02T04:41:53;95260.59;;;5.99;100.00
56038;BME280;41907;47.848;9.000;2023-04-02T04:49:24;95270.63;;;6.02;100.00
56038;BME280;41907;47.848;9.000;2023-04-02T04:54:17;95273.75;;;6.04;100.00
56038;BME280;41907;47.848;9.000;2023-04-02T04:56:45;95273.16;;;6.07;100.00
56038;BME280;41907;47.848;9.000;2023-04-02T04:59:16;95275.81;;;6.07;100.00
56038;BME280;41907;47.848;9.000;2023-04-02T05:01:46;95275.25;;;6.10;100.00
56038;BME280;41907;47.848;9.000;2023-04-02T05:04:18;95281.75;;;6.18;100.00
56038;BME280;41907;47.848;9.000;2023-04-02T05:06:50;95275.28;;;5.91;100.00
56038;BME280;41907;47.848;9.000;2023-04-02T05:09:39;95278.72;;;5.92;100.00
56038;BME280;41907;47.848;9.000;2023-04-02T05:14:32;95275.66;;;6.17;100.00
56038;BME280;41907;47.848;9.000;2023-04-02T05:17:03;95283.22;;;6.24;100.00
56038;BME280;41907;47.848;9.000;2023-04-02T05:19:32;95293.22;;;6.13;100.00
56038;BME280;41907;47.848;9.000;2023-04-02T05:22:04;95283.81;;;6.21;100.00
56038;BME280;41907;47.848;9.000;2023-04-02T05:27:04;95298.16;;;6.33;100.00
56038;BME280;41907;47.848;9.000;2023-04-02T05:29:34;95298.66;;;6.35;100.00
56038;BME280;41907;47.848;9.000;2023-04-02T05:34:33;95299.25;;;6.46;100.00
56038;BME280;41907;47.848;9.000;2023-04-02T05:37:01;95307.31;;;6.41;100.00
56038;BME280;41907;47.848;9.000;2023-04-02T05:39:27;95305.75;;;6.40;100.00
56038;BME280;41907;47.848;9.000;2023-04-02T05:41:57;95305.22;;;6.38;100.00
56038;BME280;41907;47.848;9.000;2023-04-02T05:44:27;95307.78;;;6.43;100.00
56038;BME280;41907;47.848;9.000;2023-04-02T05:47:12;95308.56;;;6.44;100.00
56038;BME280;41907;47.848;9.000;2023-04-02T05:49:46;95312.28;;;6.43;100.00
56038;BME280;41907;47.848;9.000;2023-04-02T05:52:15;95318.75;;;6.37;100.00
56038;BME280;41907;47.848;9.000;2023-04-02T05:54:48;95324.63;;;6.33;100.00
56038;BME280;41907;47.848;9.000;2023-04-02T05:57:17;95323.38;;;6.45;100.00
56038;BME280;41907;47.848;9.000;2023-04-02T05:59:52;95318.09;;;6.45;100.00
56038;BME280;41907;47.848;9.000;2023-04-02T06:05:04;95330.88;;;6.56;100.00
56038;BME280;41907;47.848;9.000;2023-04-02T06:07:47;95336.19;;;6.70;100.00
56038;BME280;41907;47.848;9.000;2023-04-02T06:12:43;95344.09;;;6.89;100.00
56038;BME280;41907;47.848;9.000;2023-04-02T06:15:17;95339.09;;;6.87;100.00
56038;BME280;41907;47.848;9.000;2023-04-02T06:17:46;95336.81;;;6.94;100.00
56038;BME280;41907;47.848;9.000;2023-04-02T06:20:12;95340.66;;;6.88;100.00
56038;BME280;41907;47.848;9.000;2023-04-02T06:22:40;95344.28;;;6.79;100.00
56038;BME280;41907;47.848;9.000;2023-04-02T06:25:16;95352.69;;;6.67;100.00
56038;BME280;41907;47.848;9.000;2023-04-02T06:27:44;95354.38;;;6.77;100.00
56038;BME280;41907;47.848;9.000;2023-04-02T06:30:13;95353.91;;;6.88;100.00
56038;BME280;41907;47.848;9.000;2023-04-02T06:32:40;95362.34;;;6.90;100.00
56038;BME280;41907;47.848;9.000;2023-04-02T06:35:10;95362.16;;;7.00;100.00
56038;BME280;41907;47.848;9.000;2023-04-02T06:37:39;95360.19;;;6.92;100.00
56038;BME280;41907;47.848;9.000;2023-04-02T06:40:17;95366.13;;;7.17;100.00
56038;BME280;41907;47.848;9.000;2023-04-02T06:42:47;95362.66;;;7.30;100.00
56038;BME280;41907;47.848;9.000;2023-04-02T06:45:21;95363.84;;;7.37;100.00
56038;BME280;41907;47.848;9.000;2023-04-02T06:47:47;95371.31;;;7.35;100.00
56038;BME280;41907;47.848;9.000;2023-04-02T06:52:43;95377.72;;;7.34;100.00
56038;BME280;41907;47.848;9.000;2023-04-02T06:55:23;95377.81;;;7.43;100.00
56038;BME280;41907;47.848;9.000;2023-04-02T06:57:51;95377.78;;;7.70;100.00
56038;BME280;41907;47.848;9.000;2023-04-02T07:00:33;95381.22;;;8.65;100.00
56038;BME280;41907;47.848;9.000;2023-04-02T07:03:00;95380.38;;;8.56;100.00
56038;BME280;41907;47.848;9.000;2023-04-02T07:05:27;95386.25;;;8.67;100.00
56038;BME280;41907;47.848;9.000;2023-04-02T07:07:53;95383.25;;;8.68;100.00
56038;BME280;41907;47.848;9.000;2023-04-02T07:10:18;95386.09;;;8.94;100.00
56038;BME280;41907;47.848;9.000;2023-04-02T07:12:44;95382.81;;;8.97;100.00
56038;BME280;41907;47.848;9.000;2023-04-02T07:15:13;95388.09;;;8.88;100.00
56038;BME280;41907;47.848;9.000;2023-04-02T07:17:39;95391.31;;;9.08;100.00
56038;BME280;41907;47.848;9.000;2023-04-02T07:20:04;95392.00;;;9.13;100.00
56038;BME280;41907;47.848;9.000;2023-04-02T07:22:30;95396.84;;;9.20;100.00
56038;BME280;41907;47.848;9.000;2023-04-02T07:24:55;95403.56;;;9.17;100.00
56038;BME280;41907;47.848;9.000;2023-04-02T07:27:20;95404.16;;;9.06;100.00
56038;BME280;41907;47.848;9.000;2023-04-02T07:29:45;95401.66;;;9.40;100.00
56038;BME280;41907;47.848;9.000;2023-04-02T07:32:11;95399.66;;;9.54;100.00
56038;BME280;41907;47.848;9.000;2023-04-02T07:34:37;95407.34;;;9.25;100.00
56038;BME280;41907;47.848;9.000;2023-04-02T07:37:02;95413.47;;;9.65;100.00
56038;BME280;41907;47.848;9.000;2023-04-02T07:39:28;95417.63;;;9.97;100.00
56038;BME280;41907;47.848;9.000;2023-04-02T07:41:54;95420.34;;;10.23;100.00
56038;BME280;41907;47.848;9.000;2023-04-02T07:44:19;95415.50;;;10.42;98.47
56038;BME280;41907;47.848;9.000;2023-04-02T07:46:45;95415.31;;;10.90;95.45
56038;BME280;41907;47.848;9.000;2023-04-02T07:49:10;95416.88;;;10.91;94.94
56038;BME280;41907;47.848;9.000;2023-04-02T07:51:35;95427.38;;;10.96;93.54
56038;BME280;41907;47.848;9.000;2023-04-02T07:54:01;95419.56;;;10.91;92.28
56038;BME280;41907;47.848;9.000;2023-04-02T07:56:27;95437.69;;;11.24;92.20
56038;BME280;41907;47.848;9.000;2023-04-02T07:58:52;95427.22;;;11.56;89.16
56038;BME280;41907;47.848;9.000;2023-04-02T08:01:19;95433.88;;;11.88;88.10
56038;BME280;41907;47.848;9.000;2023-04-02T08:03:45;95430.97;;;12.23;85.27
56038;BME280;41907;47.848;9.000;2023-04-02T08:06:10;95436.59;;;12.30;82.60
56038;BME280;41907;47.848;9.000;2023-04-02T08:08:36;95434.03;;;12.75;82.14
56038;BME280;41907;47.848;9.000;2023-04-02T08:11:02;95428.84;;;13.57;77.45
56038;BME280;41907;47.848;9.000;2023-04-02T08:13:27;95424.59;;;14.41;72.20
56038;BME280;41907;47.848;9.000;2023-04-02T08:15:52;95428.25;;;14.48;69.88
56038;BME280;41907;47.848;9.000;2023-04-02T08:18:20;95427.13;;;14.37;70.43
56038;BME280;41907;47.848;9.000;2023-04-02T08:20:45;95434.44;;;14.00;72.12
56038;BME280;41907;47.848;9.000;2023-04-02T08:23:12;95432.13;;;14.63;68.02
56038;BME280;41907;47.848;9.000;2023-04-02T08:25:39;95424.19;;;15.38;65.49
56038;BME280;41907;47.848;9.000;2023-04-02T08:28:05;95424.78;;;18.06;55.66
56038;BME280;41907;47.848;9.000;2023-04-02T08:30:30;95436.22;;;20.34;48.08
56038;BME280;41907;47.848;9.000;2023-04-02T08:32:56;95445.78;;;22.61;42.73
56038;BME280;41907;47.848;9.000;2023-04-02T08:35:21;95457.31;;;24.43;38.08
56038;BME280;41907;47.848;9.000;2023-04-02T08:37:47;95460.84;;;25.19;35.46
56038;BME280;41907;47.848;9.000;2023-04-02T08:40:46;95467.25;;;25.36;34.68
56038;BME280;41907;47.848;9.000;2023-04-02T08:43:16;95476.69;;;24.97;34.15
56038;BME280;41907;47.848;9.000;2023-04-02T08:48:10;95478.75;;;21.78;38.56
56038;BME280;41907;47.848;9.000;2023-04-02T08:50:38;95474.34;;;20.08;42.32
56038;BME280;41907;47.848;9.000;2023-04-02T08:53:17;95474.47;;;21.84;39.47
56038;BME280;41907;47.848;9.000;2023-04-02T08:56:03;95480.53;;;20.12;42.18
56038;BME280;41907;47.848;9.000;2023-04-02T09:01:05;95484.47;;;17.59;48.61
56038;BME280;41907;47.848;9.000;2023-04-02T09:03:36;95486.69;;;16.77;51.20
56038;BME280;41907;47.848;9.000;2023-04-02T09:06:03;95491.13;;;16.53;51.56
56038;BME280;41907;47.848;9.000;2023-04-02T09:08:31;95485.59;;;15.52;54.05
56038;BME280;41907;47.848;9.000;2023-04-02T09:13:26;95488.84;;;14.62;57.75
56038;BME280;41907;47.848;9.000;2023-04-02T09:15:55;95485.69;;;13.74;60.27
56038;BME280;41907;47.848;9.000;2023-04-02T09:18:22;95495.25;;;13.51;62.23
56038;BME280;41907;47.848;9.000;2023-04-02T09:20:47;95492.19;;;13.28;62.94
56038;BME280;41907;47.848;9.000;2023-04-02T09:23:16;95500.78;;;13.13;64.85
56038;BME280;41907;47.848;9.000;2023-04-02T09:25:47;95502.09;;;12.65;67.02
56038;BME280;41907;47.848;9.000;2023-04-02T09:28:12;95507.78;;;13.05;66.78
56038;BME280;41907;47.848;9.000;2023-04-02T09:33:06;95498.66;;;13.72;64.25
56038;BME280;41907;47.848;9.000;2023-04-02T09:35:36;95496.63;;;13.69;64.17
56038;BME280;41907;47.848;9.000;2023-04-02T09:41:18;95512.66;;;14.02;59.26
56038;BME280;41907;47.848;9.000;2023-04-02T09:46:32;95521.44;;;13.78;63.64
56038;BME280;41907;47.848;9.000;2023-04-02T09:48:42;95516.31;;;13.86;61.49
56038;BME280;41907;47.848;9.000;2023-04-02T09:53:46;95526.78;;;13.33;64.73
56038;BME280;41907;47.848;9.000;2023-04-02T09:56:20;95531.22;;;12.88;68.18
56038;BME280;41907;47.848;9.000;2023-04-02T09:59:03;95532.66;;;13.06;66.33
56038;BME280;41907;47.848;9.000;2023-04-02T10:03:54;95535.75;;;13.83;63.78
56038;BME280;41907;47.848;9.000;2023-04-02T10:06:20;95537.41;;;13.87;63.01
56038;BME280;41907;47.848;9.000;2023-04-02T10:08:45;95540.47;;;14.34;60.39
56038;BME280;41907;47.848;9.000;2023-04-02T10:11:16;95542.47;;;14.86;58.04
56038;BME280;41907;47.848;9.000;2023-04-02T10:13:54;95542.81;;;16.43;54.51
56038;BME280;41907;47.848;9.000;2023-04-02T10:21:31;95550.72;;;13.84;60.00
56038;BME280;41907;47.848;9.000;2023-04-02T10:23:57;95549.00;;;14.24;57.81
56038;BME280;41907;47.848;9.000;2023-04-02T10:31:21;95559.59;;;14.21;58.66
56038;BME280;41907;47.848;9.000;2023-04-02T10:33:49;95568.19;;;14.14;59.76
56038;BME280;41907;47.848;9.000;2023-04-02T10:39:05;95556.50;;;13.73;61.33
56038;BME280;41907;47.848;9.000;2023-04-02T10:44:21;95567.16;;;13.08;62.12
56038;BME280;41907;47.848;9.000;2023-04-02T10:55:03;95579.59;;;12.24;69.25
56038;BME280;41907;47.848;9.000;2023-04-02T10:59:51;95582.47;;;11.46;75.67
56038;BME280;41907;47.848;9.000;2023-04-02T11:05:03;95592.97;;;11.43;77.64
56038;BME280;41907;47.848;9.000;2023-04-02T11:07:31;95583.38;;;11.68;78.18
56038;BME280;41907;47.848;9.000;2023-04-02T11:10:00;95582.41;;;11.81;77.21
56038;BME280;41907;47.848;9.000;2023-04-02T11:12:42;95588.97;;;12.01;75.40
56038;BME280;41907;47.848;9.000;2023-04-02T11:15:13;95590.19;;;12.12;75.78
56038;BME280;41907;47.848;9.000;2023-04-02T11:17:41;95579.38;;;12.38;72.32
56038;BME280;41907;47.848;9.000;2023-04-02T11:23:04;95588.06;;;13.14;70.30
56038;BME280;41907;47.848;9.000;2023-04-02T11:25:29;95581.97;;;14.25;68.16
56038;BME280;41907;47.848;9.000;2023-04-02T11:28:05;95577.00;;;15.12;57.48
56038;BME280;41907;47.848;9.000;2023-04-02T11:30:35;95581.97;;;15.93;53.36
56038;BME280;41907;47.848;9.000;2023-04-02T11:33:22;95584.03;;;15.84;53.31
56038;BME280;41907;47.848;9.000;2023-04-02T11:35:46;95578.25;;;16.14;55.11
56038;BME280;41907;47.848;9.000;2023-04-02T11:50:52;95587.69;;;14.60;57.64
56038;BME280;41907;47.848;9.000;2023-04-02T11:53:35;95591.72;;;14.53;56.50
56038;BME280;41907;47.848;9.000;2023-04-02T12:11:32;95603.34;;;14.58;57.49
56038;BME280;41907;47.848;9.000;2023-04-02T12:13:58;95603.34;;;14.45;57.78
56038;BME280;41907;47.848;9.000;2023-04-02T12:16:23;95597.88;;;14.54;57.85
56038;BME280;41907;47.848;9.000;2023-04-02T12:18:55;95599.72;;;14.29;57.69
56038;BME280;41907;47.848;9.000;2023-04-02T12:21:23;95600.81;;;14.04;59.02
56038;BME280;41907;47.848;9.000;2023-04-02T12:23:49;95597.34;;;14.15;59.66
56038;BME280;41907;47.848;9.000;2023-04-02T12:26:32;95601.69;;;13.96;59.47
56038;BME280;41907;47.848;9.000;2023-04-02T12:31:59;95610.94;;;13.86;59.49
56038;BME280;41907;47.848;9.000;2023-04-02T12:34:26;95613.34;;;14.12;59.32
56038;BME280;41907;47.848;9.000;2023-04-02T12:36:55;95607.03;;;14.41;58.89
56038;BME280;41907;47.848;9.000;2023-04-02T12:39:21;95605.81;;;14.50;57.14
56038;BME280;41907;47.848;9.000;2023-04-02T12:41:46;95606.59;;;14.51;56.06
56038;BME280;41907;47.848;9.000;2023-04-02T12:44:13;95610.94;;;14.56;57.83
56038;BME280;41907;47.848;9.000;2023-04-02T12:46:40;95601.78;;;14.69;56.48
56038;BME280;41907;47.848;9.000;2023-04-02T12:49:07;95610.84;;;14.64;57.37
56038;BME280;41907;47.848;9.000;2023-04-02T12:51:35;95601.34;;;14.42;57.98
56038;BME280;41907;47.848;9.000;2023-04-02T12:54:01;95603.59;;;14.52;57.84
56038;BME280;41907;47.848;9.000;2023-04-02T12:56:26;95612.19;;;14.58;56.95
56038;BME280;41907;47.848;9.000;2023-04-02T12:58:52;95615.53;;;14.79;57.70
56038;BME280;41907;47.848;9.000;2023-04-02T13:01:19;95615.88;;;15.42;56.02
56038;BME280;41907;47.848;9.000;2023-04-02T13:04:27;95612.72;;;15.80;57.55
56038;BME280;41907;47.848;9.000;2023-04-02T13:06:36;95608.78;;;16.06;53.71
56038;BME280;41907;47.848;9.000;2023-04-02T13:09:03;95604.63;;;15.92;51.45
56038;BME280;41907;47.848;9.000;2023-04-02T13:11:33;95597.19;;;15.74;51.70
56038;BME280;41907;47.848;9.000;2023-04-02T13:14:00;95606.19;;;15.93;51.68
56038;BME280;41907;47.848;9.000;2023-04-02T13:16:27;95593.06;;;15.36;53.75
56038;BME280;41907;47.848;9.000;2023-04-02T13:19:07;95604.22;;;15.78;53.83
56038;BME280;41907;47.848;9.000;2023-04-02T13:21:33;95594.75;;;15.69;53.56
56038;BME280;41907;47.848;9.000;2023-04-02T13:23:58;95598.34;;;15.88;51.57
56038;BME280;41907;47.848;9.000;2023-04-02T13:26:27;95599.41;;;15.84;53.93
56038;BME280;41907;47.848;9.000;2023-04-02T13:31:36;95604.47;;;16.01;49.97
56038;BME280;41907;47.848;9.000;2023-04-02T13:34:01;95592.09;;;15.84;50.66
56038;BME280;41907;47.848;9.000;2023-04-02T13:36:27;95594.97;;;15.91;52.22
56038;BME280;41907;47.848;9.000;2023-04-02T13:38:53;95596.09;;;15.90;52.06
56038;BME280;41907;47.848;9.000;2023-04-02T13:41:23;95600.78;;;15.38;49.84
56038;BME280;41907;47.848;9.000;2023-04-02T13:43:52;95594.44;;;15.58;51.04
56038;BME280;41907;47.848;9.000;2023-04-02T13:46:22;95601.69;;;15.30;50.75
56038;BME280;41907;47.848;9.000;2023-04-02T13:48:49;95607.06;;;15.70;51.91
56038;BME280;41907;47.848;9.000;2023-04-02T13:51:17;95595.91;;;15.83;51.26
56038;BME280;41907;47.848;9.000;2023-04-02T13:53:44;95592.06;;;16.12;51.77
56038;BME280;41907;47.848;9.000;2023-04-02T13:56:11;95600.81;;;15.25;50.77
56038;BME280;41907;47.848;9.000;2023-04-02T13:58:36;95594.09;;;14.43;50.66
56038;BME280;41907;47.848;9.000;2023-04-02T14:01:01;95604.81;;;13.98;53.43
56038;BME280;41907;47.848;9.000;2023-04-02T14:03:27;95607.78;;;14.29;56.13
56038;BME280;41907;47.848;9.000;2023-04-02T14:06:12;95605.59;;;14.43;56.95
56038;BME280;41907;47.848;9.000;2023-04-02T14:11:12;95617.31;;;13.94;56.09
56038;BME280;41907;47.848;9.000;2023-04-02T14:24:15;95640.22;;;12.49;65.91
56038;BME280;41907;47.848;9.000;2023-04-02T14:31:40;95647.34;;;11.38;83.23
56038;BME280;41907;47.848;9.000;2023-04-02T14:34:10;95645.75;;;11.20;82.18
56038;BME280;41907;47.848;9.000;2023-04-02T14:44:09;95661.25;;;10.84;97.56
56038;BME280;41907;47.848;9.000;2023-04-02T14:46:36;95671.75;;;10.80;99.78
56038;BME280;41907;47.848;9.000;2023-04-02T14:51:50;95665.97;;;10.95;100.00
56038;BME280;41907;47.848;9.000;2023-04-02T14:57:09;95668.66;;;11.04;97.78
56038;BME280;41907;47.848;9.000;2023-04-02T15:02:21;95671.19;;;11.43;97.93
56038;BME280;41907;47.848;9.000;2023-04-02T15:04:56;95674.81;;;11.30;96.88
56038;BME280;41907;47.848;9.000;2023-04-02T15:07:24;95674.19;;;11.33;96.98
56038;BME280;41907;47.848;9.000;2023-04-02T15:10:05;95672.47;;;11.54;95.18
56038;BME280;41907;47.848;9.000;2023-04-02T15:12:32;95682.06;;;11.81;94.94
56038;BME280;41907;47.848;9.000;2023-04-02T15:15:01;95678.44;;;11.95;96.35
56038;BME280;41907;47.848;9.000;2023-04-02T15:17:28;95675.94;;;11.98;95.46
56038;BME280;41907;47.848;9.000;2023-04-02T15:19:57;95680.16;;;11.99;95.58
56038;BME280;41907;47.848;9.000;2023-04-02T15:25:01;95683.47;;;11.96;92.80
56038;BME280;41907;47.848;9.000;2023-04-02T15:30:04;95679.06;;;12.00;94.17
56038;BME280;41907;47.848;9.000;2023-04-02T15:37:32;95688.50;;;12.06;94.19
56038;BME280;41907;47.848;9.000;2023-04-02T15:45:18;95690.25;;;11.76;93.40
56038;BME280;41907;47.848;9.000;2023-04-02T15:47:52;95692.44;;;11.66;92.42
56038;BME280;41907;47.848;9.000;2023-04-02T15:50:43;95687.69;;;11.71;90.34
56038;BME280;41907;47.848;9.000;2023-04-02T15:53:18;95686.44;;;11.43;88.24
56038;BME280;41907;47.848;9.000;2023-04-02T16:03:37;95697.84;;;11.00;84.75
56038;BME280;41907;47.848;9.000;2023-04-02T16:11:33;95713.13;;;10.69;84.70
56038;BME280;41907;47.848;9.000;2023-04-02T16:14:41;95715.28;;;10.58;85.05
56038;BME280;41907;47.848;9.000;2023-04-02T16:16:46;95709.00;;;10.54;84.38
56038;BME280;41907;47.848;9.000;2023-04-02T16:24:13;95727.72;;;10.10;87.53
56038;BME280;41907;47.848;9.000;2023-04-02T16:31:53;95724.72;;;10.11;88.36
56038;BME280;41907;47.848;9.000;2023-04-02T16:46:53;95743.41;;;9.75;90.53
56038;BME280;41907;47.848;9.000;2023-04-02T16:49:25;95741.59;;;9.62;91.34
56038;BME280;41907;47.848;9.000;2023-04-02T16:54:35;95754.66;;;9.36;93.78
56038;BME280;41907;47.848;9.000;2023-04-02T17:09:48;95766.94;;;8.96;97.70
56038;BME280;41907;47.848;9.000;2023-04-02T17:12:19;95764.94;;;8.88;98.10
56038;BME280;41907;47.848;9.000;2023-04-02T17:17:13;95780.44;;;8.86;99.61
56038;BME280;41907;47.848;9.000;2023-04-02T17:19:39;95781.00;;;8.83;99.96
56038;BME280;41907;47.848;9.000;2023-04-02T17:22:08;95779.22;;;8.78;100.00
56038;BME280;41907;47.848;9.000;2023-04-02T17:24:39;95784.06;;;8.76;100.00
56038;BME280;41907;47.848;9.000;2023-04-02T17:29:37;95788.59;;;8.76;100.00
56038;BME280;41907;47.848;9.000;2023-04-02T17:32:04;95794.50;;;8.73;100.00
56038;BME280;41907;47.848;9.000;2023-04-02T17:34:31;95793.19;;;8.70;100.00
56038;BME280;41907;47.848;9.000;2023-04-02T17:47:14;95819.34;;;8.49;100.00
56038;BME280;41907;47.848;9.000;2023-04-02T17:49:51;95821.31;;;8.44;100.00
56038;BME280;41907;47.848;9.000;2023-04-02T18:09:49;95848.03;;;8.15;100.00
56038;BME280;41907;47.848;9.000;2023-04-02T18:13:01;95853.06;;;8.16;100.00
56038;BME280;41907;47.848;9.000;2023-04-02T18:17:50;95862.50;;;8.09;100.00
56038;BME280;41907;47.848;9.000;2023-04-02T18:23:00;95873.31;;;7.94;100.00